Maringouin, Louisiana
Current Conditions -  °F | °C
As of 6:55 PM on Saturday 25 Oct 2014 (Local Time) from KHZR Reporting Station
Clear Clear  
Wind Chill: 68°   Ceiling: Unl
Heat Index: 68°   Visibility: 10mi
Dew Point: 58°   Wind: 0mph
Humidity: 69%   Direction: NA
Pressure: 30.08"   Gusts: NA
Location:  30.49°N, 91.52°W
Report Text: KHZR 252355Z AUTO 00000KT 10SM CLR 20/14 A3008 RMK AO2 T02010143 10269 20201
Loading
Personal Weather Stations






























Interactive Weather Map
Tropical Storm Tracking
New forecast layout! Learn more

10-Day Weather Forecast

Advertisements
Track Severe Weather on mobile